Time;durP1;ratioP1;P1;durP2;ratioP2;P2;SDS_P1;SDS_P2;PMS_P1;PMS_P2;Temp;Humidity;BMP_temperature;BMP_pressure;BME280_temperature;BME280_humidity;BME280_pressure;Samples;Min_cycle;Max_cycle;Signal;HPM_P1;HPM_P2
2023/01/01 00:01:26;;;;;;;16.13;7.32;;;;;;;18.26;59.37;100734.63;5010404;28;20075;-77
2023/01/01 00:03:53;;;;;;;23.58;8.38;;;;;;;18.70;57.98;100726.56;5008269;28;20441;-77
2023/01/01 00:06:20;;;;;;;15.98;8.43;;;;;;;18.19;58.96;100732.22;5009450;28;20045;-78
2023/01/01 00:08:46;;;;;;;17.77;8.93;;;;;;;18.32;59.08;100737.06;5007142;28;20030;-77
2023/01/01 00:11:12;;;;;;;20.08;7.88;;;;;;;18.58;58.15;100724.16;5006759;28;20080;-76
2023/01/01 00:13:39;;;;;;;24.10;9.35;;;;;;;18.50;58.87;100718.50;5007594;28;20124;-76
2023/01/01 00:16:06;;;;;;;19.67;9.82;;;;;;;18.10;60.42;100735.78;5009919;28;20026;-77
2023/01/01 00:18:33;;;;;;;25.55;10.23;;;;;;;18.39;59.33;100715.00;5008608;28;20034;-76
2023/01/01 00:21:06;;;;;;;28.27;12.38;;;;;;;18.74;59.00;100714.81;5011114;28;20034;-76
2023/01/01 00:23:32;;;;;;;26.55;11.48;;;;;;;18.69;58.48;100716.78;5023657;28;20069;-77
2023/01/01 00:25:58;;;;;;;23.40;12.98;;;;;;;18.44;59.92;100725.88;5008206;28;20040;-76
2023/01/01 00:28:23;;;;;;;31.33;12.52;;;;;;;18.10;60.41;100724.91;5011274;28;20146;-76
2023/01/01 00:30:49;;;;;;;23.85;14.02;;;;;;;18.09;60.66;100718.66;5026471;28;20049;-75
2023/01/01 00:33:14;;;;;;;18.17;10.30;;;;;;;18.20;60.29;100736.56;5012686;28;20518;-76
2023/01/01 00:35:39;;;;;;;21.90;13.15;;;;;;;18.62;58.68;100735.31;5011437;28;20502;-75
2023/01/01 00:38:06;;;;;;;32.60;15.18;;;;;;;19.05;58.09;100748.09;5013491;28;20478;-76
2023/01/01 00:40:31;;;;;;;26.42;14.95;;;;;;;18.82;59.22;100729.75;5011443;28;20123;-77
2023/01/01 00:42:57;;;;;;;28.88;16.10;;;;;;;18.97;58.17;100733.19;5011133;28;20355;-76
2023/01/01 00:45:22;;;;;;;25.50;13.07;;;;;;;18.64;58.24;100723.06;4990562;28;20146;-78
2023/01/01 00:47:50;;;;;;;28.58;13.63;;;;;;;18.57;58.46;100713.56;5006112;28;20392;-79
2023/01/01 00:50:15;;;;;;;35.42;14.98;;;;;;;18.84;58.15;100733.00;5014584;28;20385;-77
2023/01/01 00:52:41;;;;;;;21.30;12.90;;;;;;;18.95;56.89;100726.38;5016342;28;20034;-76
2023/01/01 00:55:06;;;;;;;24.30;11.77;;;;;;;19.08;56.30;100726.59;5015611;28;20605;-76
2023/01/01 00:57:32;;;;;;;25.92;12.43;;;;;;;19.02;55.72;100718.72;5009665;28;20066;-77
2023/01/01 00:59:57;;;;;;;23.23;11.50;;;;;;;19.49;54.57;100712.63;5004606;28;20034;-76
2023/01/01 01:02:23;;;;;;;27.15;11.05;;;;;;;19.34;54.81;100721.75;5013494;28;20479;-76
2023/01/01 01:04:48;;;;;;;25.50;12.95;;;;;;;19.53;53.87;100719.13;5014431;28;20041;-76
2023/01/01 01:07:13;;;;;;;37.58;15.57;;;;;;;19.47;53.57;100726.56;4996536;28;20034;-76
2023/01/01 01:09:39;;;;;;;20.15;12.65;;;;;;;19.10;54.20;100727.09;5014371;28;20057;-76
2023/01/01 01:12:04;;;;;;;37.17;13.00;;;;;;;19.43;53.13;100716.50;5014116;28;20033;-75
2023/01/01 01:14:30;;;;;;;20.42;11.20;;;;;;;19.47;53.11;100715.66;5014588;28;20494;-76
2023/01/01 01:16:55;;;;;;;19.35;10.10;;;;;;;19.32;52.45;100712.22;5015158;28;20037;-76
2023/01/01 01:19:22;;;;;;;23.63;11.52;;;;;;;19.65;51.86;100717.66;5006913;28;20443;-77
2023/01/01 01:21:48;;;;;;;20.60;10.68;;;;;;;19.83;51.59;100719.63;5013853;28;20026;-77
2023/01/01 01:24:14;;;;;;;23.00;10.05;;;;;;;19.75;51.38;100719.47;5012797;28;20745;-76
2023/01/01 01:26:39;;;;;;;24.80;10.82;;;;;;;19.48;52.04;100717.25;5013238;28;20042;-75
2023/01/01 01:29:05;;;;;;;34.45;11.90;;;;;;;19.50;52.40;100706.88;5013065;28;20110;-76
2023/01/01 01:31:32;;;;;;;25.50;11.68;;;;;;;19.63;52.02;100717.13;4995452;28;20108;-75
2023/01/01 01:33:58;;;;;;;34.88;11.82;;;;;;;20.19;50.49;100703.69;5013745;28;20096;-77
2023/01/01 01:36:24;;;;;;;23.77;10.93;;;;;;;19.54;52.38;100742.56;5015868;28;20030;-77
2023/01/01 01:38:49;;;;;;;20.15;8.68;;;;;;;19.08;54.18;100726.59;5025126;28;20050;-77
2023/01/01 01:41:20;;;;;;;23.48;9.40;;;;;;;19.21;53.31;100736.81;5014131;28;20034;-76
2023/01/01 01:43:57;;;;;;;22.73;11.45;;;;;;;19.44;52.27;100756.31;5014816;28;20033;-76
2023/01/01 01:46:35;;;;;;;30.13;10.45;;;;;;;18.86;53.82;100768.94;5014023;28;20069;-75
2023/01/01 01:49:19;;;;;;;19.35;7.80;;;;;;;18.92;54.21;100740.59;5014025;28;20033;-78
2023/01/01 01:51:45;;;;;;;25.90;9.30;;;;;;;19.17;54.68;100759.47;4996601;28;20434;-76
2023/01/01 01:54:16;;;;;;;24.20;8.85;;;;;;;19.02;55.45;100765.84;4996335;28;20030;-78
2023/01/01 01:56:54;;;;;;;20.80;8.85;;;;;;;18.74;55.78;100779.34;4996492;28;20042;-77
2023/01/01 01:59:23;;;;;;;18.17;8.90;;;;;;;19.54;54.00;100773.38;5012024;28;20038;-77
2023/01/01 02:01:49;;;;;;;14.75;7.22;;;;;;;18.92;56.11;100781.44;4995595;28;20105;-76
2023/01/01 02:04:15;;;;;;;20.15;7.35;;;;;;;18.63;56.99;100769.63;5011988;28;20096;-75
2023/01/01 02:06:42;;;;;;;18.02;8.07;;;;;;;19.21;55.27;100771.41;5012322;28;20121;-76
2023/01/01 02:09:08;;;;;;;18.48;6.90;;;;;;;19.55;54.11;100775.00;5011589;28;20037;-75
2023/01/01 02:11:34;;;;;;;13.65;6.43;;;;;;;19.36;53.95;100776.00;4995879;28;20034;-77
2023/01/01 02:14:01;;;;;;;15.68;6.40;;;;;;;18.97;54.85;100786.84;5013173;28;20054;-79
2023/01/01 02:17:02;;;;;;;14.40;6.28;;;;;;;19.23;54.32;100769.22;5012928;28;20099;-76
2023/01/01 02:19:36;;;;;;;17.27;5.50;;;;;;;19.31;53.76;100774.06;4925411;29;20482;-77
2023/01/01 02:22:10;;;;;;;15.48;5.05;;;;;;;19.57;52.97;100780.16;4932172;28;20048;-76
2023/01/01 02:25:07;;;;;;;20.27;5.55;;;;;;;19.22;53.30;100803.81;4932717;28;20040;-77
2023/01/01 02:27:50;;;;;;;16.90;4.07;;;;;;;19.44;53.05;100765.28;4932468;28;20040;-75
2023/01/01 02:30:16;;;;;;;11.10;4.65;;;;;;;19.47;52.92;100791.16;4921198;29;20066;-75
2023/01/01 02:32:59;;;;;;;13.95;4.00;;;;;;;19.16;53.21;100785.88;4933112;28;20051;-76
2023/01/01 02:35:37;;;;;;;16.33;4.80;;;;;;;19.32;52.62;100775.69;4933456;28;20524;-78
2023/01/01 02:38:09;;;;;;;9.15;3.13;;;;;;;19.42;52.80;100775.66;4933779;29;20058;-76
2023/01/01 02:40:40;;;;;;;14.73;4.50;;;;;;;19.65;51.84;100776.81;4932683;29;20039;-76
2023/01/01 02:43:06;;;;;;;9.50;3.50;;;;;;;19.68;51.39;100777.06;4932024;28;20035;-77
2023/01/01 02:45:32;;;;;;;12.50;3.00;;;;;;;19.74;50.94;100781.38;4931655;28;20050;-75
2023/01/01 02:48:03;;;;;;;11.55;3.80;;;;;;;19.18;51.68;100800.03;4932118;28;20047;-75
2023/01/01 02:50:28;;;;;;;9.77;2.92;;;;;;;19.79;50.68;100794.94;4931772;28;20114;-76
2023/01/01 02:53:31;;;;;;;8.32;3.05;;;;;;;19.58;50.96;100790.78;4949348;28;20062;-77
2023/01/01 02:56:37;;;;;;;17.40;3.53;;;;;;;19.26;51.29;100794.00;5002049;28;20056;-75
2023/01/01 03:02:59;;;;;;;8.13;2.67;;;;;;;19.52;50.50;100774.78;4932057;29;20403;-76
2023/01/01 03:08:59;;;;;;;10.85;2.92;;;;;;;19.66;50.23;100795.63;4932343;29;20566;-77
2023/01/01 03:11:32;;;;;;;12.10;2.97;;;;;;;19.39;50.45;100775.41;4931846;29;20058;-78
2023/01/01 03:14:10;;;;;;;12.10;2.83;;;;;;;19.48;50.39;100771.00;4923528;29;20663;-74
2023/01/01 03:16:45;;;;;;;7.05;2.30;;;;;;;19.58;49.95;100779.88;4922375;29;20060;-77
2023/01/01 03:19:37;;;;;;;9.38;2.95;;;;;;;19.84;49.35;100788.63;4933886;28;20046;-76
2023/01/01 03:22:07;;;;;;;7.18;2.55;;;;;;;19.42;49.70;100794.72;4823045;29;20065;-74
2023/01/01 03:24:38;;;;;;;6.72;2.15;;;;;;;19.94;49.08;100777.63;4836157;29;20606;-77
2023/01/01 03:27:08;;;;;;;8.95;2.38;;;;;;;19.22;50.14;100778.50;4838240;29;20026;-78
2023/01/01 03:29:36;;;;;;;;;;;;;;;19.22;50.23;100779.31;4838857;29;20082;-76
2023/01/01 03:32:05;;;;;;;9.75;2.80;;;;;;;19.46;49.71;100801.22;4839029;29;19919;-76
2023/01/01 03:34:38;;;;;;;8.68;2.60;;;;;;;19.49;49.51;100800.69;4853052;29;20053;-75
2023/01/01 03:37:09;;;;;;;9.43;2.10;;;;;;;20.10;48.71;100785.38;4874602;29;20561;-74
2023/01/01 03:39:45;;;;;;;11.00;2.67;;;;;;;19.63;49.64;100790.75;4886604;29;20043;-76
2023/01/01 03:42:25;;;;;;;5.57;1.60;;;;;;;19.62;49.38;100799.19;4912565;29;20044;-78
2023/01/01 03:45:02;;;;;;;11.37;2.07;;;;;;;19.34;50.41;100792.59;4913149;29;20047;-75
2023/01/01 03:47:28;;;;;;;9.40;1.80;;;;;;;19.13;50.94;100802.00;4912766;29;20068;-76
2023/01/01 03:49:55;;;;;;;8.18;2.70;;;;;;;19.33;50.11;100817.41;4911103;29;20064;-75
2023/01/01 03:53:06;;;;;;;6.78;2.13;;;;;;;19.47;50.17;100791.97;4911725;29;20048;-75
2023/01/01 03:55:36;;;;;;;;;;;;;;;19.52;49.80;100805.53;4914746;29;20039;-75
2023/01/01 03:58:17;;;;;;;6.85;1.92;;;;;;;18.92;51.13;100792.31;4922093;28;19937;-75
2023/01/01 04:00:54;;;;;;;7.63;2.38;;;;;;;19.51;50.46;100806.66;5014524;28;20042;-74
2023/01/01 04:03:23;;;;;;;8.02;2.20;;;;;;;19.63;49.46;100812.56;5014571;28;20040;-76
2023/01/01 04:05:49;;;;;;;7.20;2.30;;;;;;;19.26;50.81;100804.88;5013012;28;20026;-75
2023/01/01 04:08:15;;;;;;;14.32;2.55;;;;;;;19.13;51.11;100823.78;5015451;28;20509;-75
2023/01/01 04:10:52;;;;;;;11.60;2.38;;;;;;;19.26;50.59;100812.28;5016053;28;20053;-76
2023/01/01 04:13:17;;;;;;;8.27;2.05;;;;;;;19.19;50.82;100798.97;4992155;28;20046;-75
2023/01/01 04:15:42;;;;;;;11.48;1.55;;;;;;;19.07;51.19;100778.59;5004716;28;20417;-75
2023/01/01 04:18:08;;;;;;;11.70;1.33;;;;;;;19.18;51.12;100832.72;5003314;28;20394;-75
2023/01/01 04:20:33;;;;;;;10.95;2.47;;;;;;;19.23;50.78;100850.97;5005364;28;20034;-76
2023/01/01 04:23:02;;;;;;;7.78;1.83;;;;;;;19.01;51.27;100850.53;4995330;28;20028;-75
2023/01/01 04:25:28;;;;;;;6.20;2.00;;;;;;;19.26;50.68;100843.03;4995832;28;20054;-76
2023/01/01 04:27:54;;;;;;;13.23;2.65;;;;;;;19.08;51.19;100843.72;5009662;28;20150;-76
2023/01/01 04:30:19;;;;;;;7.60;1.17;;;;;;;19.16;50.92;100858.66;5010695;28;20073;-77
2023/01/01 04:32:45;;;;;;;11.18;1.60;;;;;;;19.05;50.94;100848.88;4994995;28;20038;-74
2023/01/01 04:35:12;;;;;;;7.10;1.63;;;;;;;18.90;51.50;100829.91;4988191;28;20128;-74
2023/01/01 04:37:39;;;;;;;3.83;1.38;;;;;;;18.60;52.17;100862.69;4997392;28;20022;-78
2023/01/01 04:40:05;;;;;;;4.93;1.90;;;;;;;19.18;51.50;100902.78;4995268;28;20121;-77
2023/01/01 04:42:31;;;;;;;6.25;2.08;;;;;;;19.04;51.74;100867.16;4994471;28;20148;-75
2023/01/01 04:44:57;;;;;;;8.30;2.28;;;;;;;18.96;51.91;100894.97;4995273;28;20054;-77
2023/01/01 04:47:22;;;;;;;5.55;1.25;;;;;;;18.69;53.55;100885.56;4994677;28;20073;-77
2023/01/01 04:49:47;;;;;;;4.82;1.15;;;;;;;18.56;54.18;100856.19;4995317;28;20042;-76
2023/01/01 04:52:13;;;;;;;3.67;1.10;;;;;;;18.42;54.84;100855.91;4994773;28;20034;-74
2023/01/01 04:54:38;;;;;;;12.00;1.88;;;;;;;18.51;54.62;100858.94;4994816;28;20042;-76
2023/01/01 04:57:04;;;;;;;5.43;1.33;;;;;;;18.08;54.00;100879.41;4994324;28;20034;-75
2023/01/01 04:59:30;;;;;;;4.60;1.00;;;;;;;18.22;53.68;100886.72;4999301;28;20768;-75
2023/01/01 05:01:56;;;;;;;5.07;1.30;;;;;;;18.56;53.07;100886.13;4995134;28;20019;-74
2023/01/01 05:04:21;;;;;;;4.47;1.50;;;;;;;18.28;52.94;100909.28;4992527;28;20046;-74
2023/01/01 05:06:47;;;;;;;3.90;1.27;;;;;;;18.36;51.62;100917.72;4999451;28;20510;-77
2023/01/01 05:09:12;;;;;;;6.00;1.20;;;;;;;18.59;50.59;100912.81;4993350;28;20038;-76
2023/01/01 05:11:38;;;;;;;4.43;2.15;;;;;;;18.54;51.15;100920.97;4994149;28;20487;-76
2023/01/01 05:14:04;;;;;;;2.70;1.20;;;;;;;18.58;50.99;100928.31;4994936;28;20049;-75
2023/01/01 05:16:38;;;;;;;4.95;1.20;;;;;;;18.37;51.34;100934.84;5014150;28;20071;-75
2023/01/01 05:19:04;;;;;;;4.75;1.33;;;;;;;18.84;49.96;100956.28;5012688;28;20034;-73
2023/01/01 05:21:32;;;;;;;3.63;1.30;;;;;;;18.14;51.78;100924.53;5013061;28;20042;-74
2023/01/01 05:24:03;;;;;;;3.83;0.77;;;;;;;18.22;51.37;100935.66;5012857;28;20038;-75
2023/01/01 05:26:31;;;;;;;7.72;1.20;;;;;;;18.65;50.70;100945.19;5012928;28;20037;-75
2023/01/01 05:28:58;;;;;;;5.85;1.08;;;;;;;18.22;51.88;100941.13;5013454;28;20463;-74
2023/01/01 05:31:28;;;;;;;1.58;0.95;;;;;;;18.19;53.19;100933.50;5012866;28;20105;-74
2023/01/01 05:33:54;;;;;;;6.50;1.52;;;;;;;18.55;52.63;100938.94;5012812;28;20121;-75
2023/01/01 05:36:25;;;;;;;2.75;1.00;;;;;;;17.85;55.32;100946.00;5013340;28;20041;-77
2023/01/01 05:38:51;;;;;;;3.78;1.13;;;;;;;17.82;56.03;100946.56;5013519;28;20049;-76
2023/01/01 05:41:18;;;;;;;5.45;2.25;;;;;;;18.49;54.41;100950.91;5013161;28;20117;-74
2023/01/01 05:43:43;;;;;;;6.45;1.75;;;;;;;18.33;54.78;100944.66;5014272;28;20033;-75
2023/01/01 05:46:17;;;;;;;6.32;1.48;;;;;;;18.49;54.65;100950.91;5013195;28;20030;-73
2023/01/01 05:48:44;;;;;;;10.10;1.70;;;;;;;18.08;55.19;100971.88;5013594;28;20030;-74
2023/01/01 05:51:17;;;;;;;6.85;2.08;;;;;;;17.90;55.99;100966.94;4996039;28;20101;-76
2023/01/01 05:53:44;;;;;;;3.97;1.60;;;;;;;18.71;53.83;100970.50;5012343;28;20592;-76
2023/01/01 05:56:10;;;;;;;8.98;1.90;;;;;;;18.20;54.08;100964.25;4996226;28;20041;-76
2023/01/01 05:58:36;;;;;;;4.43;1.25;;;;;;;18.02;53.88;100968.34;5013607;28;20037;-76
2023/01/01 06:01:24;;;;;;;2.90;1.23;;;;;;;18.06;53.01;100974.03;5011861;28;20429;-75
2023/01/01 06:03:50;;;;;;;5.70;2.38;;;;;;;18.16;51.71;100980.28;5012907;28;20049;-75
2023/01/01 06:06:18;;;;;;;6.13;1.63;;;;;;;18.20;52.51;100972.41;4996509;28;20101;-76
2023/01/01 06:08:51;;;;;;;6.53;1.55;;;;;;;18.25;51.98;100988.72;5012526;28;20625;-75
2023/01/01 06:11:17;;;;;;;12.20;2.28;;;;;;;18.18;51.66;100997.16;5012193;28;20783;-76
2023/01/01 06:13:43;;;;;;;3.85;1.33;;;;;;;17.91;51.98;100993.88;5012974;28;20052;-75
2023/01/01 06:16:08;;;;;;;7.68;1.48;;;;;;;18.01;51.86;100996.59;5013696;28;20040;-75
2023/01/01 06:18:34;;;;;;;4.22;1.13;;;;;;;17.91;52.34;101007.47;5012790;28;20037;-74
2023/01/01 06:21:11;;;;;;;10.45;2.00;;;;;;;18.56;50.54;101014.03;5013014;28;20050;-76
2023/01/01 06:23:37;;;;;;;4.97;1.55;;;;;;;18.22;51.38;101021.94;5012852;28;20042;-75
2023/01/01 06:26:05;;;;;;;10.13;2.75;;;;;;;17.91;52.37;101028.38;5013027;28;20049;-75
2023/01/01 06:28:31;;;;;;;6.38;1.55;;;;;;;17.94;51.72;101023.25;4995131;28;20164;-74
2023/01/01 06:31:00;;;;;;;6.97;1.35;;;;;;;17.92;51.47;101024.59;5012999;28;20045;-76
2023/01/01 06:33:26;;;;;;;7.03;1.17;;;;;;;17.60;52.05;101041.09;5012731;28;20562;-75
2023/01/01 06:35:51;;;;;;;7.50;2.17;;;;;;;18.27;50.42;101032.81;5012768;28;20122;-75
2023/01/01 06:38:17;;;;;;;6.60;1.55;;;;;;;17.76;51.55;101050.94;5012608;28;20037;-76
2023/01/01 06:40:42;;;;;;;6.15;1.27;;;;;;;17.88;51.58;101042.53;5012905;28;20038;-75
2023/01/01 06:43:07;;;;;;;9.00;2.03;;;;;;;17.62;52.13;101059.84;5012643;28;20104;-74
2023/01/01 06:45:33;;;;;;;6.32;1.45;;;;;;;17.85;51.28;101053.94;4994356;28;20069;-77
2023/01/01 06:47:58;;;;;;;9.20;1.90;;;;;;;17.73;51.45;101078.63;5012330;28;20041;-76
2023/01/01 06:50:24;;;;;;;9.02;2.15;;;;;;;17.87;51.25;101074.34;5011970;28;20033;-77
2023/01/01 06:52:49;;;;;;;6.03;1.33;;;;;;;18.16;50.18;101078.22;4995965;28;20034;-76
2023/01/01 06:55:14;;;;;;;10.40;1.95;;;;;;;18.02;50.82;101074.41;5011610;28;20038;-75
2023/01/01 06:57:40;;;;;;;3.88;1.27;;;;;;;17.78;51.83;101078.66;5012222;28;20030;-76
2023/01/01 07:00:06;;;;;;;8.60;1.55;;;;;;;18.19;50.90;101076.88;5012266;28;20052;-75
2023/01/01 07:02:31;;;;;;;10.75;1.15;;;;;;;17.70;51.76;101083.78;5012082;28;20033;-76
2023/01/01 07:04:57;;;;;;;6.20;1.35;;;;;;;17.63;52.07;101105.78;5013095;28;20042;-74
2023/01/01 07:07:22;;;;;;;4.82;1.35;;;;;;;17.37;52.21;101136.59;5012196;28;20048;-76
2023/01/01 07:09:47;;;;;;;10.02;1.60;;;;;;;17.90;51.33;101114.59;5012277;28;20034;-76
2023/01/01 07:12:13;;;;;;;10.05;1.48;;;;;;;17.46;52.66;101111.38;5012029;28;20065;-75
2023/01/01 07:14:38;;;;;;;9.25;2.00;;;;;;;18.14;50.55;101112.22;5012325;28;20030;-75
2023/01/01 07:17:04;;;;;;;6.55;1.70;;;;;;;17.34;52.18;101123.53;4995632;28;20104;-75
2023/01/01 07:19:29;;;;;;;7.20;2.38;;;;;;;17.96;50.93;101132.56;5012262;28;20029;-74
2023/01/01 07:21:54;;;;;;;8.02;1.42;;;;;;;17.64;51.89;101142.75;5012180;28;20045;-76
2023/01/01 07:24:20;;;;;;;6.88;1.38;;;;;;;17.93;51.31;101127.66;5012392;28;20026;-75
2023/01/01 07:26:46;;;;;;;9.38;1.35;;;;;;;17.73;51.76;101137.63;5012261;28;20069;-76
2023/01/01 07:29:11;;;;;;;10.52;1.73;;;;;;;17.50;51.79;101134.25;5015568;28;20116;-76
2023/01/01 07:31:42;;;;;;;10.10;1.58;;;;;;;17.36;52.44;101143.91;5016034;28;20088;-77
2023/01/01 07:34:13;;;;;;;6.78;1.70;;;;;;;17.58;52.13;101162.84;4997690;28;20128;-76
2023/01/01 07:36:40;;;;;;;6.75;1.77;;;;;;;17.54;51.84;101164.44;5015749;28;20077;-75
2023/01/01 07:39:05;;;;;;;10.70;1.73;;;;;;;18.32;50.42;101177.00;5014958;28;20038;-76
2023/01/01 07:41:30;;;;;;;15.60;2.65;;;;;;;17.42;52.29;101171.94;5015409;28;20041;-74
2023/01/01 07:43:56;;;;;;;6.03;2.45;;;;;;;17.48;52.56;101174.47;4998248;28;20081;-75
2023/01/01 07:46:21;;;;;;;7.28;1.02;;;;;;;17.76;51.31;101169.72;4998317;28;20037;-76
2023/01/01 07:48:46;;;;;;;11.10;1.73;;;;;;;17.80;51.64;101177.09;5014422;28;20038;-74
2023/01/01 07:51:12;;;;;;;10.90;1.42;;;;;;;17.83;51.19;101179.25;5015627;28;20056;-75
2023/01/01 07:53:37;;;;;;;6.82;1.50;;;;;;;17.12;52.97;101183.41;5015638;28;20148;-75
2023/01/01 07:56:03;;;;;;;19.75;2.47;;;;;;;17.27;53.21;101209.88;5015860;28;20033;-75
2023/01/01 07:58:28;;;;;;;10.18;1.88;;;;;;;17.48;51.99;101208.94;5015195;28;20052;-76
2023/01/01 08:00:54;;;;;;;13.18;2.53;;;;;;;17.51;52.35;101192.16;5015275;28;20034;-76
2023/01/01 08:03:19;;;;;;;5.10;1.38;;;;;;;17.23;53.03;101216.91;5014846;28;20038;-75
2023/01/01 08:05:45;;;;;;;9.70;2.92;;;;;;;17.43;52.46;101209.69;5015774;28;20041;-74
2023/01/01 08:08:11;;;;;;;10.27;1.92;;;;;;;17.30;52.42;101222.91;5015182;28;20462;-76
2023/01/01 08:10:37;;;;;;;11.23;2.22;;;;;;;17.48;52.44;101220.66;5015667;28;20048;-77
2023/01/01 08:13:07;;;;;;;14.93;1.42;;;;;;;17.58;50.96;101229.94;5015029;28;20058;-76
2023/01/01 08:15:33;;;;;;;4.90;1.33;;;;;;;17.36;51.58;101257.19;5015445;28;20049;-76
2023/01/01 08:18:03;;;;;;;11.05;2.10;;;;;;;17.91;50.58;101257.63;5015761;28;20061;-76
2023/01/01 08:20:30;;;;;;;10.27;2.05;;;;;;;17.24;52.53;101272.84;5014893;28;20049;-76
2023/01/01 08:22:55;;;;;;;9.48;1.50;;;;;;;17.27;52.12;101291.38;5015178;28;20459;-76
2023/01/01 08:25:21;;;;;;;4.80;1.27;;;;;;;17.02;52.69;101283.78;5014164;28;20052;-77
2023/01/01 08:27:47;;;;;;;17.42;3.80;;;;;;;16.98;52.82;101290.00;5015394;28;20030;-74
2023/01/01 08:30:14;;;;;;;4.70;1.33;;;;;;;16.99;52.84;101281.59;5015401;28;20040;-75
2023/01/01 08:32:40;;;;;;;10.75;2.10;;;;;;;17.19;52.38;101300.81;5014626;28;20394;-75
2023/01/01 08:35:06;;;;;;;6.80;1.40;;;;;;;16.92;53.33;101315.47;5015523;28;20038;-77
2023/01/01 08:37:31;;;;;;;18.05;2.08;;;;;;;17.11;52.66;101312.13;5014363;28;20045;-77
2023/01/01 08:39:57;;;;;;;11.85;1.50;;;;;;;17.03;52.90;101325.34;5015050;28;20041;-76
2023/01/01 08:42:22;;;;;;;6.72;1.40;;;;;;;17.33;52.51;101315.59;5015190;28;20034;-76
2023/01/01 08:44:48;;;;;;;5.15;1.45;;;;;;;17.17;52.83;101323.84;5014339;28;20042;-76
2023/01/01 08:47:21;;;;;;;12.20;2.30;;;;;;;17.26;52.24;101314.16;5014411;28;20568;-75
2023/01/01 08:49:47;;;;;;;8.60;1.98;;;;;;;17.18;52.60;101314.63;5015455;28;20174;-76
2023/01/01 08:52:13;;;;;;;12.98;2.80;;;;;;;16.66;54.15;101334.19;5014397;28;20062;-76
2023/01/01 08:54:38;;;;;;;7.80;1.30;;;;;;;17.66;51.21;101316.44;5014362;28;20037;-77
2023/01/01 08:57:04;;;;;;;23.63;2.22;;;;;;;17.46;51.97;101315.16;5014722;28;20383;-75
2023/01/01 08:59:29;;;;;;;9.02;1.83;;;;;;;16.91;53.29;101321.94;5014316;28;20120;-76
2023/01/01 09:01:54;;;;;;;6.03;2.10;;;;;;;16.56;54.39;101331.34;5014250;28;20178;-75
2023/01/01 09:04:20;;;;;;;9.23;1.63;;;;;;;16.82;53.88;101324.31;5012795;28;20045;-76
2023/01/01 09:06:45;;;;;;;14.45;2.05;;;;;;;16.94;54.00;101337.75;5012954;28;20026;-76
2023/01/01 09:09:11;;;;;;;5.93;2.13;;;;;;;17.16;52.95;101330.38;5012850;28;20049;-74
2023/01/01 09:11:37;;;;;;;22.80;3.65;;;;;;;17.22;53.31;101340.19;5014034;28;20132;-75
2023/01/01 09:14:03;;;;;;;8.98;2.05;;;;;;;17.44;52.13;101368.94;5012424;28;20058;-74
2023/01/01 09:16:28;;;;;;;12.38;1.60;;;;;;;17.28;52.90;101355.47;5013694;28;20038;-74
2023/01/01 09:18:53;;;;;;;7.32;1.75;;;;;;;17.28;52.83;101363.63;5013569;28;20038;-75
2023/01/01 09:21:19;;;;;;;6.85;1.40;;;;;;;17.25;52.01;101356.00;5014079;28;20046;-76
2023/01/01 09:23:44;;;;;;;5.18;1.63;;;;;;;17.36;52.06;101377.56;5013826;28;20133;-76
2023/01/01 09:26:10;;;;;;;9.75;2.10;;;;;;;17.70;51.48;101359.16;5013641;28;20085;-75
2023/01/01 09:28:36;;;;;;;12.10;1.65;;;;;;;17.57;51.22;101361.50;5014261;28;20073;-76
2023/01/01 09:31:05;;;;;;;6.28;2.08;;;;;;;17.29;52.07;101373.41;5013644;28;20057;-76
2023/01/01 09:33:31;;;;;;;13.73;3.33;;;;;;;17.74;50.67;101365.72;5013566;28;20037;-75
2023/01/01 09:36:14;;;;;;;11.20;1.80;;;;;;;17.41;51.48;101360.50;5014101;28;20045;-75
2023/01/01 09:38:39;;;;;;;9.98;1.95;;;;;;;17.40;50.99;101367.81;5013738;28;20049;-76
2023/01/01 09:41:13;;;;;;;14.85;1.88;;;;;;;17.19;51.89;101359.72;5013918;28;20484;-77
2023/01/01 09:44:02;;;;;;;15.98;2.05;;;;;;;16.85;53.10;101359.09;5013744;28;20046;-75
2023/01/01 09:46:27;;;;;;;11.43;1.80;;;;;;;17.83;50.57;101355.16;4999623;28;20056;-75
2023/01/01 09:49:02;;;;;;;10.93;2.83;;;;;;;17.75;50.68;101364.63;5013583;28;20026;-76
2023/01/01 09:51:34;;;;;;;11.15;2.25;;;;;;;17.71;50.75;101366.22;5013023;28;20109;-76
2023/01/01 09:54:12;;;;;;;11.27;2.53;;;;;;;17.91;50.21;101371.81;5013271;28;20052;-75
2023/01/01 09:56:39;;;;;;;9.63;1.95;;;;;;;16.91;52.81;101387.94;5013331;28;20045;-75
2023/01/01 09:59:08;;;;;;;8.73;1.05;;;;;;;17.53;51.62;101375.56;5013604;28;20029;-75
2023/01/01 10:01:56;;;;;;;14.10;2.95;;;;;;;17.70;51.41;101377.34;5012290;28;20053;-75
2023/01/01 10:04:46;;;;;;;11.23;1.75;;;;;;;17.23;52.79;101383.41;5009697;28;20041;-75
2023/01/01 10:07:17;;;;;;;12.43;3.13;;;;;;;17.23;52.76;101397.00;5011093;28;20074;-76
2023/01/01 10:09:54;;;;;;;10.93;1.58;;;;;;;17.28;53.00;101390.78;5010537;28;20038;-75
2023/01/01 10:12:36;;;;;;;10.30;1.73;;;;;;;17.43;52.59;101380.09;5011611;28;20046;-75
2023/01/01 10:15:24;;;;;;;11.25;2.42;;;;;;;17.16;52.96;101409.94;5012461;28;20045;-75
2023/01/01 10:17:56;;;;;;;11.98;1.67;;;;;;;17.24;52.87;101408.66;5012360;28;20046;-74
2023/01/01 10:20:27;;;;;;;13.93;2.20;;;;;;;17.16;53.24;101395.56;5009921;28;20026;-76
2023/01/01 10:23:13;;;;;;;24.52;2.92;;;;;;;17.17;53.12;101398.03;5012417;28;20038;-77
2023/01/01 10:25:39;;;;;;;16.90;2.75;;;;;;;17.60;52.01;101397.13;5009080;28;20077;-75
2023/01/01 10:28:38;;;;;;;16.50;2.85;;;;;;;17.47;52.51;101400.22;5011855;28;20541;-75
2023/01/01 10:31:15;;;;;;;14.50;1.92;;;;;;;17.55;52.31;101405.25;5009609;28;20060;-76
2023/01/01 10:33:41;;;;;;;14.68;3.08;;;;;;;17.59;52.37;101414.53;5009553;28;20577;-75
2023/01/01 10:36:11;;;;;;;10.32;2.60;;;;;;;17.48;52.59;101404.56;5012007;28;20033;-74
2023/01/01 10:38:38;;;;;;;13.48;2.90;;;;;;;17.28;53.39;101409.78;5009643;28;20046;-76
2023/01/01 10:41:09;;;;;;;12.45;3.10;;;;;;;17.88;51.71;101391.41;5012450;28;20040;-76
2023/01/01 10:43:35;;;;;;;12.95;2.10;;;;;;;17.55;52.08;101386.22;5011561;28;20587;-74
2023/01/01 10:46:01;;;;;;;6.90;1.75;;;;;;;17.96;51.11;101396.34;5011425;28;20041;-75
2023/01/01 10:48:31;;;;;;;21.45;3.85;;;;;;;18.21;50.73;101388.38;5010469;28;20046;-76
2023/01/01 10:51:02;;;;;;;10.10;1.85;;;;;;;18.10;50.75;101389.38;5010707;28;20042;-75
2023/01/01 10:53:37;;;;;;;14.50;3.15;;;;;;;17.62;51.78;101370.50;5010087;28;20046;-77
2023/01/01 10:56:08;;;;;;;18.73;2.30;;;;;;;17.61;51.72;101363.41;5011158;28;20037;-75
2023/01/01 10:58:55;;;;;;;13.85;2.30;;;;;;;18.03;50.97;101363.47;4993045;28;20049;-75
2023/01/01 11:01:29;;;;;;;8.07;1.92;;;;;;;18.52;49.69;101375.78;5010851;28;20572;-75
2023/01/01 11:03:56;;;;;;;7.13;1.35;;;;;;;17.91;50.78;101390.88;5010137;28;20026;-74
2023/01/01 11:06:33;;;;;;;13.32;2.72;;;;;;;18.02;51.46;101379.00;5011540;28;20034;-75
2023/01/01 11:09:02;;;;;;;8.15;1.98;;;;;;;18.68;49.64;101393.00;5010249;28;20105;-74
2023/01/01 11:11:41;;;;;;;14.07;2.00;;;;;;;18.34;50.58;101417.00;5010727;28;20157;-75
2023/01/01 11:14:19;;;;;;;15.98;2.53;;;;;;;18.38;51.07;101410.78;5009498;28;20050;-75
2023/01/01 11:16:45;;;;;;;15.60;4.50;;;;;;;18.57;51.21;101419.38;5010597;28;20048;-75
2023/01/01 11:19:21;;;;;;;9.50;1.67;;;;;;;18.86;49.76;101430.69;5011076;28;20132;-75
2023/01/01 11:21:47;;;;;;;10.10;2.38;;;;;;;18.58;50.66;101429.16;5009670;28;20046;-75
2023/01/01 11:24:21;;;;;;;12.25;2.03;;;;;;;18.61;50.14;101416.94;5010571;28;20184;-75
2023/01/01 11:26:47;;;;;;;11.82;3.35;;;;;;;18.16;51.22;101441.94;5009505;28;20037;-75
2023/01/01 11:29:21;;;;;;;6.78;2.40;;;;;;;18.24;51.09;101433.25;5010886;28;20018;-74
2023/01/01 11:31:47;;;;;;;20.90;2.25;;;;;;;18.15;51.08;101432.94;5009586;28;20042;-75
2023/01/01 11:34:34;;;;;;;13.50;2.63;;;;;;;18.17;51.54;101447.09;5010058;28;20101;-77
2023/01/01 11:37:17;;;;;;;12.45;1.95;;;;;;;18.02;52.15;101438.84;5008085;28;20068;-75